Time;durP1;ratioP1;P1;durP2;ratioP2;P2;SDS_P1;SDS_P2;PMS_P1;PMS_P2;Temp;Humidity;BMP_temperature;BMP_pressure;BME280_temperature;BME280_humidity;BME280_pressure;Samples;Min_cycle;Max_cycle;Signal;HPM_P1;HPM_P2
2023/03/16 07:03:46;;;;;;;5.18;3.08;;;;;;;;;;10584480;27;20478;-82
2023/03/16 07:08:52;;;;;;;6.05;3.00;;;;;;;;;;10562361;28;20554;-82
2023/03/16 07:13:54;;;;;;;3.85;2.53;;;;;;;;;;10589294;28;20103;-82
2023/03/16 07:18:56;;;;;;;5.63;3.20;;;;;;;;;;10598740;28;20028;-82
2023/03/16 07:24:04;;;;;;;3.63;2.30;;;;;;;;;;10608377;28;20036;-83
2023/03/16 07:29:33;;;;;;;5.35;2.92;;;;;;;;;;10602347;28;20028;-82
2023/03/16 07:34:54;;;;;;;4.07;2.25;;;;;;;;;;10602674;28;20044;-83
2023/03/16 07:40:08;;;;;;;3.75;2.30;;;;;;;;;;10631193;28;20026;-82
2023/03/16 07:45:13;;;;;;;3.80;2.28;;;;;;;;;;10622431;28;20023;-82
2023/03/16 07:50:23;;;;;;;2.70;1.40;;;;;;;;;;10631933;28;20049;-82
2023/03/16 08:00:56;;;;;;;3.45;2.13;;;;;;;;;;10648241;27;20040;-82
2023/03/16 08:05:57;;;;;;;4.43;2.88;;;;;;;;;;10596026;28;20103;-84
2023/03/16 08:10:58;;;;;;;4.40;2.53;;;;;;;;;;10583808;28;20053;-83
2023/03/16 08:16:00;;;;;;;5.15;2.67;;;;;;;;;;10592005;28;20028;-82
2023/03/16 08:21:02;;;;;;;2.90;1.88;;;;;;;;;;10580672;28;20023;-82
2023/03/16 08:26:07;;;;;;;3.70;2.58;;;;;;;;;;10579611;28;20390;-81
2023/03/16 08:31:09;;;;;;;3.47;2.38;;;;;;;;;;10594239;28;20015;-80
2023/03/16 08:36:12;;;;;;;4.22;2.90;;;;;;;;;;10593872;28;20023;-80
2023/03/16 08:41:15;;;;;;;4.10;2.90;;;;;;;;;;10576154;28;20120;-81
2023/03/16 08:46:16;;;;;;;4.57;2.88;;;;;;;;;;10575747;28;20038;-80
2023/03/16 08:51:18;;;;;;;5.00;3.45;;;;;;;;;;10578098;28;20027;-80
2023/03/16 08:56:19;;;;;;;5.88;3.40;;;;;;;;;;10586081;28;20023;-81
2023/03/16 09:01:21;;;;;;;4.78;3.33;;;;;;;;;;10576675;28;20055;-80
2023/03/16 09:06:22;;;;;;;5.20;3.30;;;;;;;;;;10584698;28;20020;-80
2023/03/16 09:11:27;;;;;;;3.60;2.45;;;;;;;;;;10587851;28;20073;-80
2023/03/16 09:16:29;;;;;;;4.18;2.70;;;;;;;;;;10592931;28;20054;-80
2023/03/16 09:21:30;;;;;;;4.85;3.50;;;;;;;;;;10586101;28;20023;-80
2023/03/16 09:26:32;;;;;;;2.67;1.75;;;;;;;;;;10574441;28;20024;-81
2023/03/16 09:31:33;;;;;;;3.47;2.00;;;;;;;;;;10573971;28;20034;-81
2023/03/16 09:36:34;;;;;;;3.72;2.40;;;;;;;;;;10573290;28;20027;-80
2023/03/16 09:41:38;;;;;;;4.65;3.20;;;;;;;;;;10600122;28;20031;-80
2023/03/16 09:46:45;;;;;;;3.42;3.00;;;;;;;;;;10575416;28;20023;-81
2023/03/16 09:51:47;;;;;;;6.25;4.03;;;;;;;;;;10576076;28;20023;-80
2023/03/16 09:57:08;;;;;;;4.65;3.05;;;;;;;;;;10596911;28;20083;-80
2023/03/16 10:07:47;;;;;;;5.10;3.27;;;;;;;;;;10599318;28;20055;-79
2023/03/16 10:12:50;;;;;;;5.72;3.97;;;;;;;;;;10578431;28;20075;-80
2023/03/16 10:18:01;;;;;;;5.85;3.90;;;;;;;;;;10577991;28;20065;-80
2023/03/16 10:23:14;;;;;;;3.67;2.05;;;;;;;;;;10571220;28;20168;-80
2023/03/16 10:28:17;;;;;;;4.35;2.70;;;;;;;;;;10572926;28;20502;-80
2023/03/16 10:33:23;;;;;;;4.10;2.70;;;;;;;;;;10573998;28;20019;-80
2023/03/16 10:38:37;;;;;;;4.68;2.95;;;;;;;;;;10576536;28;20094;-78
2023/03/16 10:43:40;;;;;;;8.35;5.72;;;;;;;;;;10577051;28;20024;-79
2023/03/16 10:48:42;;;;;;;2.60;1.90;;;;;;;;;;10574940;28;20016;-80
2023/03/16 10:53:44;;;;;;;5.32;3.00;;;;;;;;;;10581965;28;20020;-80
2023/03/16 10:58:45;;;;;;;6.32;4.00;;;;;;;;;;10583277;28;20417;-81
2023/03/16 11:03:51;;;;;;;7.15;3.70;;;;;;;;;;10577167;28;20483;-80
2023/03/16 11:08:53;;;;;;;4.15;2.70;;;;;;;;;;10593421;28;20119;-79
2023/03/16 11:13:59;;;;;;;4.85;3.45;;;;;;;;;;10580356;28;20027;-80
2023/03/16 11:19:03;;;;;;;3.53;2.33;;;;;;;;;;10582552;28;20127;-79
2023/03/16 11:24:05;;;;;;;4.25;2.83;;;;;;;;;;10599634;28;20053;-80
2023/03/16 11:29:12;;;;;;;4.60;2.33;;;;;;;;;;10576873;28;20035;-80
2023/03/16 11:34:18;;;;;;;5.50;2.97;;;;;;;;;;10593563;28;20028;-80
2023/03/16 11:39:36;;;;;;;3.95;2.55;;;;;;;;;;10602291;28;20574;-80
2023/03/16 11:44:58;;;;;;;4.82;2.35;;;;;;;;;;10585219;28;20031;-81
2023/03/16 11:50:17;;;;;;;6.75;3.28;;;;;;;;;;10604146;28;20078;-81
2023/03/16 11:55:22;;;;;;;4.43;2.30;;;;;;;;;;10587250;28;20024;-81
2023/03/16 12:00:30;;;;;;;5.10;2.40;;;;;;;;;;10586904;28;20028;-80
2023/03/16 12:05:31;;;;;;;3.28;2.40;;;;;;;;;;10592862;28;20020;-81
2023/03/16 12:10:32;;;;;;;;;;;;;;;;;;10594433;28;20040;-80
2023/03/16 12:15:48;;;;;;;4.07;2.20;;;;;;;;;;10588644;28;19903;-81
2023/03/16 12:21:04;;;;;;;6.47;3.40;;;;;;;;;;10583288;28;20433;-81
2023/03/16 12:26:07;;;;;;;3.80;1.90;;;;;;;;;;10581118;28;20023;-81
2023/03/16 12:31:20;;;;;;;6.53;2.35;;;;;;;;;;10586060;28;20027;-81
2023/03/16 12:36:53;;;;;;;3.53;1.65;;;;;;;;;;10607391;28;20048;-81
2023/03/16 12:41:54;;;;;;;5.68;2.20;;;;;;;;;;10533165;28;20047;-81
2023/03/16 12:47:17;;;;;;;4.55;2.33;;;;;;;;;;10600406;28;20062;-80
2023/03/16 12:52:19;;;;;;;4.32;2.10;;;;;;;;;;10580687;28;20028;-81
2023/03/16 12:57:24;;;;;;;7.00;2.60;;;;;;;;;;10584756;28;20016;-81
2023/03/16 13:02:28;;;;;;;5.10;2.03;;;;;;;;;;10585961;28;20035;-81
2023/03/16 13:07:31;;;;;;;3.83;1.77;;;;;;;;;;10586204;28;20023;-81
2023/03/16 13:12:35;;;;;;;6.85;2.15;;;;;;;;;;10599124;28;20028;-81
2023/03/16 13:17:37;;;;;;;7.40;1.90;;;;;;;;;;10577041;28;20035;-81
2023/03/16 13:22:38;;;;;;;;;;;;;;;;;;10596594;28;20028;-80
2023/03/16 13:27:39;;;;;;;3.58;1.60;;;;;;;;;;10597243;28;19904;-81
2023/03/16 13:32:41;;;;;;;3.85;1.70;;;;;;;;;;10588168;28;20023;-81
2023/03/16 13:37:43;;;;;;;3.35;1.77;;;;;;;;;;10581267;28;20028;-81
2023/03/16 13:42:51;;;;;;;2.92;1.45;;;;;;;;;;10601847;28;20137;-81
2023/03/16 13:47:52;;;;;;;3.70;1.80;;;;;;;;;;10584761;28;20501;-81
2023/03/16 13:52:59;;;;;;;2.63;1.33;;;;;;;;;;10585246;28;20070;-82
2023/03/16 13:58:00;;;;;;;3.38;1.77;;;;;;;;;;10607896;28;20094;-81
2023/03/16 14:03:03;;;;;;;;;;;;;;;;;;10602117;28;20019;-80
2023/03/16 14:08:04;;;;;;;3.78;1.60;;;;;;;;;;10582539;28;19962;-82
2023/03/16 14:13:09;;;;;;;2.85;1.77;;;;;;;;;;10582878;28;20046;-82
2023/03/16 14:18:20;;;;;;;4.15;1.60;;;;;;;;;;10590678;28;20030;-81
2023/03/16 14:23:27;;;;;;;3.53;1.92;;;;;;;;;;10590848;28;20035;-80
2023/03/16 14:28:30;;;;;;;2.58;1.30;;;;;;;;;;10598571;28;20076;-81
2023/03/16 14:33:33;;;;;;;2.65;1.63;;;;;;;;;;10577502;28;20056;-81
2023/03/16 14:38:35;;;;;;;3.20;1.90;;;;;;;;;;10577704;28;20063;-81
2023/03/16 14:43:39;;;;;;;4.55;2.13;;;;;;;;;;10580202;28;20032;-81
2023/03/16 14:48:40;;;;;;;3.13;1.75;;;;;;;;;;10579945;28;20047;-81
2023/03/16 14:53:41;;;;;;;3.97;2.00;;;;;;;;;;10579610;28;20028;-81
2023/03/16 14:58:42;;;;;;;4.18;1.90;;;;;;;;;;10578349;28;20141;-80
2023/03/16 15:03:44;;;;;;;7.10;2.00;;;;;;;;;;10582169;28;20395;-82
2023/03/16 15:08:46;;;;;;;5.38;2.30;;;;;;;;;;10579705;28;20090;-81
2023/03/16 15:18:51;;;;;;;4.65;2.08;;;;;;;;;;10608517;28;20087;-80
2023/03/16 15:23:59;;;;;;;4.03;1.98;;;;;;;;;;10589366;28;20027;-81
2023/03/16 15:29:01;;;;;;;2.33;1.40;;;;;;;;;;10586707;28;20031;-79
2023/03/16 15:34:04;;;;;;;4.47;1.95;;;;;;;;;;10606525;28;20024;-82
2023/03/16 15:39:07;;;;;;;5.95;2.88;;;;;;;;;;10611165;28;20027;-80
2023/03/16 15:44:11;;;;;;;3.80;2.10;;;;;;;;;;10590324;28;20030;-80
2023/03/16 15:49:12;;;;;;;2.88;1.70;;;;;;;;;;10586338;28;20493;-81
2023/03/16 15:54:13;;;;;;;;;;;;;;;;;;10586122;28;20028;-81
2023/03/16 15:59:18;;;;;;;2.53;1.33;;;;;;;;;;10585034;28;19941;-81
2023/03/16 16:04:23;;;;;;;3.92;1.50;;;;;;;;;;10582483;28;20028;-81
2023/03/16 16:09:24;;;;;;;4.40;1.90;;;;;;;;;;10582725;28;20031;-80
2023/03/16 16:14:26;;;;;;;3.88;1.50;;;;;;;;;;10606360;28;20020;-81
2023/03/16 16:19:29;;;;;;;2.28;1.30;;;;;;;;;;10585177;28;20024;-80
2023/03/16 16:24:30;;;;;;;2.05;1.33;;;;;;;;;;10607664;28;20015;-80
2023/03/16 16:29:32;;;;;;;3.80;1.40;;;;;;;;;;10604722;28;20095;-81
2023/03/16 16:34:34;;;;;;;5.30;2.75;;;;;;;;;;10611632;28;20023;-79
2023/03/16 16:39:35;;;;;;;9.20;1.70;;;;;;;;;;10600010;28;20017;-79
2023/03/16 16:44:36;;;;;;;5.88;1.35;;;;;;;;;;10593196;28;20027;-79
2023/03/16 16:49:38;;;;;;;5.53;2.00;;;;;;;;;;10592138;28;20505;-81
2023/03/16 16:54:39;;;;;;;4.53;1.88;;;;;;;;;;10585544;28;20031;-80
2023/03/16 16:59:42;;;;;;;3.60;1.40;;;;;;;;;;10602876;28;20078;-80
2023/03/16 17:04:43;;;;;;;3.13;1.25;;;;;;;;;;10601626;28;20018;-80
2023/03/16 17:09:45;;;;;;;3.28;1.60;;;;;;;;;;10588018;28;20038;-80
2023/03/16 17:14:47;;;;;;;3.00;1.50;;;;;;;;;;10598260;28;20039;-81
2023/03/16 17:19:48;;;;;;;4.00;1.27;;;;;;;;;;10589516;28;20073;-81
2023/03/16 17:24:49;;;;;;;2.88;1.33;;;;;;;;;;10606691;28;20019;-83
2023/03/16 17:29:52;;;;;;;3.90;1.60;;;;;;;;;;10581807;28;20036;-82
2023/03/16 17:34:53;;;;;;;3.83;1.55;;;;;;;;;;10578349;28;20027;-83
2023/03/16 17:39:55;;;;;;;;;;;;;;;;;;10579172;28;20038;-83
2023/03/16 17:44:56;;;;;;;2.97;1.60;;;;;;;;;;10603378;28;19918;-83
2023/03/16 17:49:57;;;;;;;2.65;1.60;;;;;;;;;;10585166;28;20028;-83
2023/03/16 17:55:10;;;;;;;2.97;1.58;;;;;;;;;;10584673;28;20024;-85
2023/03/16 18:00:23;;;;;;;2.92;1.42;;;;;;;;;;10589381;28;20031;-85
2023/03/16 18:05:32;;;;;;;3.53;1.35;;;;;;;;;;10585212;28;20081;-85
2023/03/16 18:10:33;;;;;;;4.22;2.30;;;;;;;;;;10583902;28;20156;-85
2023/03/16 18:15:35;;;;;;;5.68;2.60;;;;;;;;;;10584959;28;20059;-86
2023/03/16 18:20:36;;;;;;;4.65;2.33;;;;;;;;;;10580027;28;20546;-85
2023/03/16 18:25:38;;;;;;;4.00;1.75;;;;;;;;;;10582373;28;20024;-83
2023/03/16 18:30:40;;;;;;;5.10;2.10;;;;;;;;;;10601914;28;20019;-83
2023/03/16 18:35:41;;;;;;;4.13;2.85;;;;;;;;;;10582593;28;20035;-83
2023/03/16 18:40:42;;;;;;;5.50;2.42;;;;;;;;;;10583401;28;20061;-85
2023/03/16 18:45:45;;;;;;;2.80;2.00;;;;;;;;;;10581490;28;20048;-84
2023/03/16 18:50:46;;;;;;;2.83;1.92;;;;;;;;;;10581242;28;20059;-85
2023/03/16 18:55:47;;;;;;;5.55;2.33;;;;;;;;;;10580346;28;20428;-85
2023/03/16 19:00:48;;;;;;;;;;;;;;;;;;10578500;28;20091;-85
2023/03/16 19:05:50;;;;;;;3.65;1.88;;;;;;;;;;10576330;28;19903;-85
2023/03/16 19:10:55;;;;;;;2.47;1.70;;;;;;;;;;10596487;28;20100;-85
2023/03/16 19:15:56;;;;;;;2.28;1.60;;;;;;;;;;10595969;28;20024;-85
2023/03/16 19:20:57;;;;;;;2.67;1.80;;;;;;;;;;10573931;28;20113;-85
2023/03/16 19:25:58;;;;;;;2.95;1.73;;;;;;;;;;10573418;28;20521;-86
2023/03/16 19:30:59;;;;;;;;;;;;;;;;;;10572925;28;20091;-85
2023/03/16 19:36:01;;;;;;;3.90;2.00;;;;;;;;;;10572427;28;19911;-85
2023/03/16 19:41:02;;;;;;;3.40;1.90;;;;;;;;;;10572285;28;20023;-86
2023/03/16 19:46:03;;;;;;;3.03;1.77;;;;;;;;;;10570906;28;20122;-85
2023/03/16 19:51:05;;;;;;;3.75;1.77;;;;;;;;;;10571976;28;20027;-86
2023/03/16 19:56:06;;;;;;;2.40;1.50;;;;;;;;;;10577159;28;20035;-86
2023/03/16 20:01:20;;;;;;;3.67;2.10;;;;;;;;;;10581698;28;20024;-86
2023/03/16 20:06:25;;;;;;;2.60;1.65;;;;;;;;;;10597475;28;20035;-86
2023/03/16 20:11:28;;;;;;;3.67;2.30;;;;;;;;;;10603812;27;20027;-86
2023/03/16 20:16:34;;;;;;;3.65;1.83;;;;;;;;;;10648714;27;20091;-86
